Time;durP1;ratioP1;P1;durP2;ratioP2;P2;SDS_P1;SDS_P2;PMS_P1;PMS_P2;Temp;Humidity;BMP_temperature;BMP_pressure;BME280_temperature;BME280_humidity;BME280_pressure;Samples;Min_cycle;Max_cycle;Signal;HPM_P1;HPM_P2
2022/12/08 00:01:02;;;;;;;15.77;14.60;;;4.10;99.90;;;;;;5105577;28;20186;-50
2022/12/08 00:03:28;;;;;;;15.90;14.65;;;4.10;99.90;;;;;;5106500;27;20195;-46
2022/12/08 00:11:22;;;;;;;16.50;15.30;;;4.10;99.90;;;;;;5104737;28;20555;-49
2022/12/08 00:13:47;;;;;;;15.93;14.80;;;4.10;99.90;;;;;;5106071;28;20208;-53
2022/12/08 00:16:13;;;;;;;16.27;15.27;;;4.20;99.90;;;;;;5104145;28;20298;-55
2022/12/08 00:18:38;;;;;;;16.80;15.30;;;4.20;99.90;;;;;;5104441;28;20168;-53
2022/12/08 00:21:04;;;;;;;17.77;16.07;;;4.20;99.90;;;;;;5105465;28;20175;-51
2022/12/08 00:23:30;;;;;;;16.07;14.97;;;4.30;99.90;;;;;;5104799;28;20248;-55
2022/12/08 00:25:55;;;;;;;16.23;15.10;;;4.20;99.90;;;;;;5105906;28;20226;-53
2022/12/08 00:28:21;;;;;;;16.47;15.27;;;4.20;99.90;;;;;;5105545;28;20644;-53
2022/12/08 00:30:47;;;;;;;16.33;15.23;;;4.30;99.90;;;;;;5105755;28;20188;-49
2022/12/08 00:33:12;;;;;;;16.40;15.30;;;4.30;99.90;;;;;;5105614;28;20231;-51
2022/12/08 00:35:38;;;;;;;16.50;15.10;;;4.30;99.90;;;;;;5102723;28;20607;-52
2022/12/08 00:38:04;;;;;;;15.73;14.67;;;4.30;99.90;;;;;;5102313;28;20172;-54
2022/12/08 00:40:29;;;;;;;16.50;15.40;;;4.30;99.90;;;;;;5101555;28;20445;-52
2022/12/08 00:42:55;;;;;;;16.50;15.30;;;4.40;99.90;;;;;;5101962;28;20364;-52
2022/12/08 00:45:21;;;;;;;16.23;15.13;;;4.30;99.90;;;;;;5101923;28;20638;-53
2022/12/08 00:47:47;;;;;;;16.60;15.40;;;4.30;99.90;;;;;;5101111;28;20194;-50
2022/12/08 00:50:12;;;;;;;16.13;15.10;;;4.30;99.90;;;;;;5099849;28;20190;-55
2022/12/08 00:52:38;;;;;;;16.47;15.37;;;4.30;99.90;;;;;;5100271;28;20238;-49
2022/12/08 00:55:04;;;;;;;16.60;15.40;;;4.30;99.90;;;;;;5102370;28;20187;-50
2022/12/08 00:57:30;;;;;;;16.20;15.05;;;4.30;99.90;;;;;;5101064;28;20204;-51
2022/12/08 00:59:56;;;;;;;16.30;15.10;;;4.30;99.90;;;;;;5101917;28;20247;-52
2022/12/08 01:02:22;;;;;;;16.25;14.85;;;4.30;99.90;;;;;;5102404;28;20668;-53
2022/12/08 01:04:47;;;;;;;14.95;13.95;;;4.20;99.90;;;;;;5100943;28;20187;-51
2022/12/08 01:07:13;;;;;;;15.67;14.70;;;4.30;99.90;;;;;;5102175;28;20596;-50
2022/12/08 01:09:38;;;;;;;15.20;14.10;;;4.30;99.90;;;;;;5101629;28;20325;-51
2022/12/08 01:12:05;;;;;;;16.07;15.07;;;4.20;99.90;;;;;;5101226;28;20243;-53
2022/12/08 01:14:30;;;;;;;15.80;14.68;;;4.20;99.90;;;;;;5101579;28;20187;-53
2022/12/08 01:16:56;;;;;;;15.77;14.57;;;4.10;99.90;;;;;;5099909;28;20307;-54
2022/12/08 01:19:22;;;;;;;15.73;14.70;;;4.10;99.90;;;;;;5101406;28;20257;-53
2022/12/08 01:21:47;;;;;;;16.20;15.20;;;4.10;99.90;;;;;;5101729;28;20235;-50
2022/12/08 01:24:17;;;;;;;15.30;14.30;;;4.00;99.90;;;;;;5098896;28;20176;-53
2022/12/08 01:26:43;;;;;;;16.55;15.07;;;4.10;99.90;;;;;;5101988;28;20632;-49
2022/12/08 01:29:10;;;;;;;15.70;14.70;;;4.10;99.90;;;;;;5101068;28;20187;-54
2022/12/08 01:31:36;;;;;;;15.90;14.80;;;4.10;99.90;;;;;;5100900;28;20422;-50
2022/12/08 01:34:01;;;;;;;15.83;14.53;;;4.10;99.90;;;;;;5099702;28;20203;-53
2022/12/08 01:36:30;;;;;;;15.70;14.60;;;4.10;99.90;;;;;;5101775;28;20417;-56
2022/12/08 01:38:58;;;;;;;16.48;15.02;;;4.10;99.90;;;;;;5100595;28;20180;-50
2022/12/08 01:41:26;;;;;;;16.67;15.40;;;4.10;99.90;;;;;;5101020;28;20774;-47
2022/12/08 01:44:03;;;;;;;15.80;14.70;;;4.00;99.90;;;;;;5098813;28;20969;-52
2022/12/08 01:46:31;;;;;;;15.82;14.73;;;4.00;99.90;;;;;;5100522;28;21116;-53
2022/12/08 01:49:16;;;;;;;16.27;15.18;;;4.00;99.90;;;;;;5100221;28;20219;-56
2022/12/08 01:51:58;;;;;;;16.83;15.63;;;4.00;99.90;;;;;;5100523;27;20185;-52
2022/12/08 01:54:29;;;;;;;17.27;15.90;;;4.00;99.90;;;;;;5100186;28;20267;-53
2022/12/08 01:57:07;;;;;;;17.13;15.80;;;3.90;99.90;;;;;;5099562;28;20192;-58
2022/12/08 01:59:37;;;;;;;15.70;14.55;;;3.90;99.90;;;;;;5100321;28;20176;-54
2022/12/08 02:02:03;;;;;;;17.20;16.00;;;3.90;99.90;;;;;;5099322;28;20545;-52
2022/12/08 02:04:28;;;;;;;16.87;15.77;;;3.80;99.90;;;;;;5101144;28;20183;-53
2022/12/08 02:06:54;;;;;;;16.90;15.80;;;3.80;99.90;;;;;;5099769;28;20274;-49
2022/12/08 02:09:20;;;;;;;18.67;17.27;;;3.80;99.90;;;;;;5101021;28;20180;-51
2022/12/08 02:11:47;;;;;;;17.17;15.75;;;3.70;99.90;;;;;;5098567;28;20572;-48
2022/12/08 02:14:14;;;;;;;19.00;17.27;;;3.70;99.90;;;;;;5101041;28;20184;-49
2022/12/08 02:16:53;;;;;;;17.63;16.25;;;3.60;99.90;;;;;;5099722;28;20284;-53
2022/12/08 02:19:33;;;;;;;17.58;16.25;;;3.60;99.90;;;;;;5100526;28;20511;-53
2022/12/08 02:22:26;;;;;;;16.35;15.18;;;3.50;99.90;;;;;;5099974;28;20183;-52
2022/12/08 02:25:19;;;;;;;17.42;16.02;;;3.40;99.90;;;;;;5099720;28;20605;-52
2022/12/08 02:28:05;;;;;;;17.35;15.95;;;3.30;99.90;;;;;;5099029;28;20249;-54
2022/12/08 02:30:52;;;;;;;18.30;16.80;;;3.30;99.90;;;;;;5100772;28;20353;-50
2022/12/08 02:33:39;;;;;;;18.73;17.15;;;3.20;99.90;;;;;;5099499;28;20208;-49
2022/12/08 02:36:21;;;;;;;18.23;16.77;;;3.10;99.90;;;;;;5100423;28;20187;-47
2022/12/08 02:39:02;;;;;;;17.27;16.13;;;3.10;99.90;;;;;;5099793;28;20701;-52
2022/12/08 02:41:50;;;;;;;18.83;17.33;;;3.10;99.90;;;;;;5100059;28;20183;-50
2022/12/08 02:44:34;;;;;;;19.02;17.52;;;3.10;99.90;;;;;;5098021;28;20188;-49
2022/12/08 02:47:10;;;;;;;18.45;17.05;;;3.10;99.90;;;;;;5099591;28;20232;-45
2022/12/08 02:49:36;;;;;;;17.95;16.65;;;3.10;99.90;;;;;;5100070;28;20198;-49
2022/12/08 02:52:10;;;;;;;18.20;16.80;;;3.20;99.90;;;;;;5099438;28;20230;-51
2022/12/08 02:54:43;;;;;;;18.38;16.98;;;3.20;99.90;;;;;;5099053;28;20183;-53
2022/12/08 02:57:08;;;;;;;18.50;17.10;;;3.30;99.90;;;;;;5097649;28;20183;-46
2022/12/08 03:00:00;;;;;;;18.57;17.17;;;3.30;99.90;;;;;;5099815;28;20180;-45
2022/12/08 03:02:38;;;;;;;18.65;17.25;;;3.30;99.90;;;;;;5097679;28;20215;-50
2022/12/08 03:05:22;;;;;;;18.67;17.13;;;3.30;99.90;;;;;;5099476;28;20188;-47
2022/12/08 03:08:29;;;;;;;17.65;16.30;;;3.30;99.90;;;;;;5098859;28;20230;-48
2022/12/08 03:11:12;;;;;;;18.25;16.75;;;3.40;99.90;;;;;;5081828;28;20211;-50
2022/12/08 03:13:45;;;;;;;18.30;17.00;;;3.40;99.90;;;;;;5098761;28;20211;-49
2022/12/08 03:16:15;;;;;;;17.15;15.85;;;3.50;99.90;;;;;;5098869;28;20638;-50
2022/12/08 03:18:46;;;;;;;17.67;16.48;;;3.50;99.90;;;;;;5098754;28;20677;-48
2022/12/08 03:21:16;;;;;;;17.90;16.70;;;3.60;99.90;;;;;;5097450;28;20912;-46
2022/12/08 03:23:44;;;;;;;18.17;16.88;;;3.60;99.90;;;;;;5099901;28;20267;-49
2022/12/08 03:26:29;;;;;;;18.52;17.13;;;3.60;99.90;;;;;;5099395;28;20463;-45
2022/12/08 03:28:54;;;;;;;18.65;16.98;;;3.60;99.90;;;;;;5100023;28;20183;-52
2022/12/08 03:31:22;;;;;;;17.10;15.80;;;3.60;99.90;;;;;;5098925;28;20184;-48
2022/12/08 03:33:51;;;;;;;17.00;15.80;;;3.70;99.90;;;;;;5098557;28;20519;-49
2022/12/08 03:36:18;;;;;;;17.55;16.00;;;3.60;99.90;;;;;;5099094;28;20622;-51
2022/12/08 03:38:45;;;;;;;18.33;16.92;;;3.60;99.90;;;;;;5099539;28;20168;-49
2022/12/08 03:41:17;;;;;;;18.05;16.65;;;3.60;99.90;;;;;;5098524;28;20505;-47
2022/12/08 03:43:43;;;;;;;17.15;15.70;;;3.60;99.90;;;;;;5098820;28;20580;-46
2022/12/08 03:46:09;;;;;;;17.45;16.15;;;3.60;99.90;;;;;;5098292;28;20190;-46
2022/12/08 03:48:35;;;;;;;18.13;16.67;;;3.60;99.90;;;;;;5099520;28;20195;-49
2022/12/08 03:51:00;;;;;;;16.77;15.37;;;3.60;99.90;;;;;;5098035;28;20778;-52
2022/12/08 03:53:26;;;;;;;17.73;16.43;;;3.60;99.90;;;;;;5098214;28;20268;-48
2022/12/08 03:55:52;;;;;;;17.27;15.90;;;3.60;99.90;;;;;;5099032;28;20287;-48
2022/12/08 03:58:18;;;;;;;17.08;15.65;;;3.70;99.90;;;;;;5098170;28;20203;-46
2022/12/08 04:00:44;;;;;;;17.83;16.43;;;3.60;99.90;;;;;;5099263;28;20562;-48
2022/12/08 04:03:09;;;;;;;18.33;16.83;;;3.70;99.90;;;;;;5094607;28;20522;-50
2022/12/08 04:05:35;;;;;;;18.40;17.00;;;3.60;99.90;;;;;;5098246;28;20195;-47
2022/12/08 04:08:00;;;;;;;17.20;16.00;;;3.60;99.90;;;;;;5098345;28;20184;-47
2022/12/08 04:10:26;;;;;;;17.57;16.20;;;3.60;99.90;;;;;;5099892;28;20183;-49
2022/12/08 04:12:52;;;;;;;17.13;15.93;;;3.50;99.90;;;;;;5101920;28;20219;-47
2022/12/08 04:15:17;;;;;;;17.83;16.57;;;3.60;99.90;;;;;;5102299;28;20538;-48
2022/12/08 04:17:43;;;;;;;18.50;16.90;;;3.60;99.90;;;;;;5103296;28;20254;-51
2022/12/08 04:20:09;;;;;;;18.40;16.90;;;3.60;99.90;;;;;;5101064;28;20215;-45
2022/12/08 04:22:34;;;;;;;17.17;15.88;;;3.60;99.90;;;;;;5102809;28;20262;-45
2022/12/08 04:25:00;;;;;;;17.80;16.40;;;3.60;99.90;;;;;;5102053;28;20271;-50
2022/12/08 04:27:26;;;;;;;17.53;16.13;;;3.60;99.90;;;;;;5103546;28;20187;-47
2022/12/08 04:29:51;;;;;;;16.33;15.13;;;3.60;99.90;;;;;;5102056;28;21059;-48
2022/12/08 04:32:17;;;;;;;17.20;15.70;;;3.60;99.90;;;;;;5102213;28;20880;-47
2022/12/08 04:34:42;;;;;;;16.77;15.60;;;3.70;99.90;;;;;;5099477;28;20188;-48
2022/12/08 04:37:08;;;;;;;17.47;15.97;;;3.70;99.90;;;;;;5101307;28;20346;-52
2022/12/08 04:39:34;;;;;;;17.60;16.30;;;3.80;99.90;;;;;;5103143;28;20187;-49
2022/12/08 04:41:59;;;;;;;16.67;15.30;;;3.90;99.90;;;;;;5101984;28;20694;-49
2022/12/08 04:44:25;;;;;;;17.60;16.20;;;3.90;99.90;;;;;;5100880;28;20191;-52
2022/12/08 04:46:50;;;;;;;16.60;15.30;;;4.00;99.90;;;;;;5101733;28;20194;-47
2022/12/08 04:49:16;;;;;;;16.10;15.00;;;4.00;99.90;;;;;;5099860;28;20384;-48
2022/12/08 04:51:42;;;;;;;16.00;14.83;;;4.00;99.90;;;;;;5101595;28;20975;-49
2022/12/08 04:54:07;;;;;;;16.77;15.50;;;4.00;99.90;;;;;;5100558;28;20478;-50
2022/12/08 04:56:33;;;;;;;17.97;16.57;;;4.10;99.90;;;;;;5102128;28;20197;-47
2022/12/08 04:58:58;;;;;;;15.90;14.80;;;4.00;99.90;;;;;;5101543;28;20195;-48
2022/12/08 05:01:24;;;;;;;16.20;15.00;;;4.10;99.90;;;;;;5100991;28;20184;-45
2022/12/08 05:03:50;;;;;;;17.87;16.40;;;4.20;99.90;;;;;;5101771;28;20184;-46
2022/12/08 05:06:15;;;;;;;15.70;14.50;;;4.20;99.90;;;;;;5102612;28;20678;-54
2022/12/08 05:08:42;;;;;;;17.30;15.97;;;4.10;99.90;;;;;;5100614;28;20257;-44
2022/12/08 05:11:09;;;;;;;15.85;14.40;;;4.20;99.90;;;;;;5099532;28;20194;-47
2022/12/08 05:13:34;;;;;;;15.63;14.23;;;4.20;99.90;;;;;;5102133;28;21146;-48
2022/12/08 05:16:09;;;;;;;16.73;15.43;;;4.20;99.90;;;;;;5101563;28;20180;-47
2022/12/08 05:18:36;;;;;;;17.02;15.73;;;4.20;99.90;;;;;;5100248;28;20480;-49
2022/12/08 05:21:01;;;;;;;16.23;15.02;;;4.30;99.90;;;;;;5101471;28;20191;-47
2022/12/08 05:23:27;;;;;;;16.90;15.50;;;4.30;99.90;;;;;;5101209;28;20188;-48
2022/12/08 05:25:52;;;;;;;18.60;17.10;;;4.30;99.90;;;;;;5102535;28;20195;-49
2022/12/08 05:28:18;;;;;;;17.17;15.90;;;4.30;99.90;;;;;;5100941;28;20180;-45
2022/12/08 05:30:44;;;;;;;16.50;15.30;;;4.30;99.90;;;;;;5101755;28;20187;-48
2022/12/08 05:33:10;;;;;;;16.83;15.53;;;4.20;99.90;;;;;;5099520;28;20465;-50
2022/12/08 05:35:35;;;;;;;18.07;16.60;;;4.20;99.90;;;;;;5099441;28;20197;-46
2022/12/08 05:38:01;;;;;;;19.30;17.70;;;4.20;99.90;;;;;;5100039;28;20506;-46
2022/12/08 05:40:26;;;;;;;17.30;15.87;;;4.20;99.90;;;;;;5101303;28;20597;-48
2022/12/08 05:42:52;;;;;;;18.93;17.43;;;4.10;99.90;;;;;;5101521;28;20207;-47
2022/12/08 05:45:18;;;;;;;16.93;15.53;;;4.10;99.90;;;;;;5101424;28;20179;-48
2022/12/08 05:47:43;;;;;;;18.63;16.60;;;4.10;99.90;;;;;;5101605;28;20212;-46
2022/12/08 05:50:09;;;;;;;17.50;16.10;;;4.10;99.90;;;;;;5101216;28;20190;-45
2022/12/08 05:52:35;;;;;;;17.60;16.27;;;4.10;99.90;;;;;;5101394;28;20227;-47
2022/12/08 05:55:01;;;;;;;18.60;17.07;;;4.00;99.90;;;;;;5101091;28;20477;-51
2022/12/08 05:57:26;;;;;;;17.90;16.60;;;3.90;99.90;;;;;;5099567;28;20545;-48
2022/12/08 05:59:52;;;;;;;18.33;16.70;;;3.90;99.90;;;;;;5100169;28;20426;-50
2022/12/08 06:02:18;;;;;;;17.50;16.20;;;3.80;99.90;;;;;;5100201;28;20440;-47
2022/12/08 06:04:43;;;;;;;17.93;16.37;;;3.80;99.90;;;;;;5101331;28;20580;-47
2022/12/08 06:07:09;;;;;;;16.73;15.17;;;3.80;99.90;;;;;;5099081;28;20188;-47
2022/12/08 06:09:35;;;;;;;16.97;15.57;;;3.80;99.90;;;;;;5101172;28;20190;-50
2022/12/08 06:12:01;;;;;;;17.00;15.70;;;3.90;99.90;;;;;;5101140;28;20303;-45
2022/12/08 06:14:27;;;;;;;17.10;15.70;;;3.90;99.90;;;;;;5101310;28;20180;-46
2022/12/08 06:16:52;;;;;;;18.27;16.77;;;3.90;99.90;;;;;;5100805;28;20499;-52
2022/12/08 06:19:18;;;;;;;17.00;15.60;;;4.00;99.90;;;;;;5100442;28;20321;-52
2022/12/08 06:21:44;;;;;;;17.17;15.77;;;4.00;99.90;;;;;;5100606;28;20188;-46
2022/12/08 06:24:10;;;;;;;17.23;15.83;;;4.00;99.90;;;;;;5099821;28;20465;-44
2022/12/08 06:26:36;;;;;;;16.77;15.52;;;4.00;99.90;;;;;;5100612;28;20176;-50
2022/12/08 06:29:03;;;;;;;17.70;16.40;;;4.00;99.90;;;;;;5099382;28;20626;-48
2022/12/08 06:31:29;;;;;;;17.45;15.95;;;4.00;99.90;;;;;;5099873;28;20885;-48
2022/12/08 06:33:54;;;;;;;17.30;15.70;;;4.00;99.90;;;;;;5099571;28;20206;-50
2022/12/08 06:36:23;;;;;;;17.93;16.43;;;4.00;99.90;;;;;;5099865;28;20184;-51
2022/12/08 06:38:49;;;;;;;16.65;15.35;;;4.00;99.90;;;;;;5100228;28;20789;-45
2022/12/08 06:41:15;;;;;;;18.10;16.70;;;4.00;99.90;;;;;;5099248;28;20347;-47
2022/12/08 06:43:41;;;;;;;17.75;15.95;;;4.00;99.90;;;;;;5098088;28;20465;-47
2022/12/08 06:46:09;;;;;;;18.50;17.17;;;4.00;99.90;;;;;;5096063;28;20303;-47
2022/12/08 06:48:35;;;;;;;17.30;15.90;;;4.00;99.90;;;;;;5097897;28;20638;-44
2022/12/08 06:51:22;;;;;;;17.63;16.13;;;3.90;99.90;;;;;;5098259;28;20190;-48
2022/12/08 06:53:47;;;;;;;16.73;15.43;;;3.90;99.90;;;;;;5098434;28;20207;-47
2022/12/08 06:56:14;;;;;;;19.13;17.47;;;3.90;99.90;;;;;;5098255;28;20184;-48
2022/12/08 06:58:41;;;;;;;17.98;16.58;;;4.00;99.90;;;;;;5098479;28;20184;-51
2022/12/08 07:01:09;;;;;;;18.58;17.08;;;4.00;99.90;;;;;;5098398;28;20234;-48
2022/12/08 07:03:36;;;;;;;18.33;16.92;;;4.00;99.90;;;;;;5098668;28;20199;-49
2022/12/08 07:06:01;;;;;;;18.52;17.13;;;4.00;99.90;;;;;;5100253;28;20194;-50
2022/12/08 07:08:27;;;;;;;18.47;17.00;;;4.10;99.90;;;;;;5099258;28;20192;-48
2022/12/08 07:10:53;;;;;;;18.40;17.00;;;4.10;99.90;;;;;;5100125;28;20183;-48
2022/12/08 07:13:18;;;;;;;16.93;15.73;;;4.10;99.90;;;;;;5099710;28;20218;-51
2022/12/08 07:15:44;;;;;;;17.27;15.97;;;4.20;99.90;;;;;;5100254;28;20180;-55
2022/12/08 07:18:09;;;;;;;17.73;16.17;;;4.20;99.90;;;;;;5099934;28;20352;-51
2022/12/08 07:20:35;;;;;;;17.73;16.43;;;4.20;99.90;;;;;;5100077;28;20176;-52
2022/12/08 07:23:01;;;;;;;18.50;16.83;;;4.20;99.90;;;;;;5099439;28;20685;-51
2022/12/08 07:25:26;;;;;;;16.57;14.97;;;4.20;99.90;;;;;;5099700;28;20534;-51
2022/12/08 07:27:52;;;;;;;17.43;16.03;;;4.20;99.90;;;;;;5100150;28;20187;-52
2022/12/08 07:30:18;;;;;;;16.13;14.87;;;4.30;99.90;;;;;;5098594;28;20697;-49
2022/12/08 07:32:44;;;;;;;18.02;16.48;;;4.30;99.90;;;;;;5096730;28;20517;-48
2022/12/08 07:35:10;;;;;;;18.50;17.00;;;4.30;99.90;;;;;;5099801;28;20664;-49
2022/12/08 07:37:37;;;;;;;18.30;16.98;;;4.20;99.90;;;;;;5099737;28;20982;-50
2022/12/08 07:40:04;;;;;;;18.77;17.17;;;4.20;99.90;;;;;;5100354;28;20176;-53
2022/12/08 07:42:30;;;;;;;18.10;16.63;;;4.20;99.90;;;;;;5099636;28;20184;-52
2022/12/08 07:44:55;;;;;;;19.33;17.80;;;4.10;99.90;;;;;;5100967;28;20189;-48
2022/12/08 07:47:21;;;;;;;19.17;17.63;;;4.10;99.90;;;;;;5100865;28;20732;-50
2022/12/08 07:49:47;;;;;;;21.77;19.80;;;4.20;99.90;;;;;;5099821;28;20194;-50
2022/12/08 07:52:12;;;;;;;20.60;18.70;;;4.20;99.90;;;;;;5103430;28;20211;-55
2022/12/08 07:54:38;;;;;;;21.57;19.70;;;4.20;99.90;;;;;;5104056;28;20179;-53
2022/12/08 07:57:04;;;;;;;18.00;16.50;;;4.30;99.90;;;;;;5101648;28;20184;-51
2022/12/08 07:59:30;;;;;;;17.90;16.48;;;4.30;99.90;;;;;;5103487;28;20172;-52
2022/12/08 08:01:56;;;;;;;18.80;17.20;;;4.40;99.90;;;;;;5103440;28;20241;-49
2022/12/08 08:04:21;;;;;;;19.03;17.20;;;4.40;99.90;;;;;;5103578;28;20183;-51
2022/12/08 08:06:47;;;;;;;18.20;16.70;;;4.40;99.90;;;;;;5102458;28;20199;-54
2022/12/08 08:09:13;;;;;;;17.80;16.30;;;4.50;99.90;;;;;;5103171;28;20184;-51
2022/12/08 08:11:38;;;;;;;16.40;15.10;;;4.50;99.90;;;;;;5103274;28;20626;-49
2022/12/08 08:14:04;;;;;;;17.10;15.70;;;4.50;99.90;;;;;;5103486;28;20262;-50
2022/12/08 08:16:30;;;;;;;16.50;15.30;;;4.40;99.90;;;;;;5103115;28;20231;-47
2022/12/08 08:18:55;;;;;;;16.83;15.53;;;4.40;99.90;;;;;;5101546;28;20213;-50
2022/12/08 08:21:21;;;;;;;24.90;22.40;;;4.40;99.90;;;;;;5101808;28;20244;-49
2022/12/08 08:23:46;;;;;;;21.33;19.50;;;4.40;99.90;;;;;;5103263;28;20192;-48
2022/12/08 08:26:13;;;;;;;17.67;16.37;;;4.40;99.90;;;;;;5101726;28;20188;-48
2022/12/08 08:28:38;;;;;;;17.88;16.58;;;4.40;99.90;;;;;;5103351;28;20204;-51
2022/12/08 08:31:05;;;;;;;20.30;18.60;;;4.50;99.90;;;;;;5101737;28;20196;-48
2022/12/08 08:33:31;;;;;;;18.80;17.30;;;4.40;99.90;;;;;;5101660;28;20658;-50
2022/12/08 08:35:57;;;;;;;18.50;17.07;;;4.40;99.90;;;;;;5102187;28;20200;-47
2022/12/08 08:38:22;;;;;;;16.80;15.57;;;4.40;99.90;;;;;;5103178;28;20705;-45
2022/12/08 08:40:48;;;;;;;17.80;16.40;;;4.40;99.90;;;;;;5101700;28;20429;-51
2022/12/08 08:43:27;;;;;;;16.90;15.60;;;4.40;99.90;;;;;;5102846;28;20399;-46
2022/12/08 08:45:57;;;;;;;18.23;16.73;;;4.40;99.90;;;;;;5102635;28;20221;-46
2022/12/08 08:48:23;;;;;;;18.55;17.10;;;4.40;99.90;;;;;;5101428;28;20290;-48
2022/12/08 08:50:49;;;;;;;18.42;16.92;;;4.30;99.90;;;;;;5101097;28;20624;-50
2022/12/08 08:53:15;;;;;;;18.53;17.13;;;4.40;99.90;;;;;;5100782;28;20516;-48
2022/12/08 08:55:40;;;;;;;19.10;17.60;;;4.50;99.90;;;;;;5102029;28;20176;-44
2022/12/08 08:58:06;;;;;;;18.43;16.93;;;4.40;99.90;;;;;;5100953;28;20240;-48
2022/12/08 09:00:31;;;;;;;17.83;16.37;;;4.40;99.90;;;;;;5102255;28;20743;-50
2022/12/08 09:02:57;;;;;;;19.17;17.47;;;4.60;99.90;;;;;;5101918;28;20564;-47
2022/12/08 09:05:22;;;;;;;17.67;16.27;;;4.70;99.90;;;;;;5101462;28;20184;-48
2022/12/08 09:07:48;;;;;;;18.03;16.73;;;4.80;99.90;;;;;;5101949;28;20183;-52
2022/12/08 09:10:14;;;;;;;16.43;15.20;;;5.00;99.90;;;;;;5102302;28;20189;-53
2022/12/08 09:12:39;;;;;;;18.00;16.50;;;5.20;99.90;;;;;;5102146;28;20199;-48
2022/12/08 09:15:06;;;;;;;15.47;14.37;;;5.40;99.90;;;;;;5102299;28;20180;-45
2022/12/08 09:17:31;;;;;;;16.80;15.50;;;5.50;99.90;;;;;;5101725;28;20570;-49
2022/12/08 09:19:57;;;;;;;17.17;15.57;;;5.70;99.90;;;;;;5099542;28;20193;-47
2022/12/08 09:22:22;;;;;;;17.40;16.03;;;5.80;99.90;;;;;;5101785;28;20435;-46
2022/12/08 09:24:48;;;;;;;17.57;16.27;;;5.80;99.90;;;;;;5100004;28;20185;-47
2022/12/08 09:27:14;;;;;;;16.70;15.50;;;5.90;99.90;;;;;;5101163;28;20885;-51
2022/12/08 09:29:39;;;;;;;15.80;14.70;;;6.00;99.90;;;;;;5101889;28;20179;-48
2022/12/08 09:32:05;;;;;;;17.67;16.37;;;6.10;99.90;;;;;;5101055;28;20236;-47
2022/12/08 09:34:31;;;;;;;16.50;15.40;;;6.30;99.90;;;;;;5101987;28;20183;-45
2022/12/08 09:36:57;;;;;;;17.83;16.70;;;6.40;99.90;;;;;;5101468;28;20183;-50
2022/12/08 09:39:22;;;;;;;18.47;17.00;;;6.40;99.90;;;;;;5101822;28;20420;-51
2022/12/08 09:41:52;;;;;;;19.13;17.63;;;6.30;99.90;;;;;;5101310;28;20664;-48
2022/12/08 09:45:01;;;;;;;19.03;17.40;;;6.50;99.90;;;;;;5101592;28;20195;-46
2022/12/08 09:47:30;;;;;;;20.00;18.50;;;7.40;99.90;;;;;;5100153;28;20465;-51
2022/12/08 09:50:10;;;;;;;17.00;15.70;;;8.70;99.90;;;;;;5101329;28;20422;-46
2022/12/08 09:52:55;;;;;;;18.10;16.90;;;9.60;99.90;;;;;;5101064;27;20623;-48
2022/12/08 09:55:50;;;;;;;15.80;14.80;;;10.30;95.60;;;;;;5100552;28;20512;-47
2022/12/08 09:58:41;;;;;;;15.97;14.90;;;10.80;92.60;;;;;;5100955;28;20799;-47
2022/12/08 10:01:10;;;;;;;17.70;16.60;;;10.80;90.30;;;;;;5099255;28;20496;-48
2022/12/08 10:03:36;;;;;;;16.93;15.80;;;11.40;88.60;;;;;;5097481;28;20472;-48
2022/12/08 10:06:19;;;;;;;15.80;14.80;;;11.30;84.70;;;;;;5097723;28;20434;-46
2022/12/08 10:09:09;;;;;;;15.77;14.87;;;11.80;80.50;;;;;;5098929;28;20234;-55
2022/12/08 10:12:09;;;;;;;16.43;15.40;;;11.40;78.90;;;;;;5096520;28;20967;-51
2022/12/08 10:14:49;;;;;;;16.50;15.30;;;11.40;77.60;;;;;;5100941;28;20415;-48
2022/12/08 10:17:22;;;;;;;16.53;15.53;;;11.50;77.90;;;;;;5081426;28;20469;-49
2022/12/08 10:19:50;;;;;;;16.50;15.50;;;10.80;76.80;;;;;;5100005;28;20448;-47
2022/12/08 10:22:24;;;;;;;15.00;14.00;;;10.80;79.10;;;;;;5094815;28;20442;-51
2022/12/08 10:24:53;;;;;;;16.20;15.20;;;10.40;78.30;;;;;;5098092;28;20512;-50
2022/12/08 10:27:19;;;;;;;14.43;13.63;;;10.30;81.60;;;;;;5101565;28;20413;-50
2022/12/08 10:29:45;;;;;;;15.73;14.63;;;10.70;81.50;;;;;;5100683;28;20765;-47
2022/12/08 10:32:20;;;;;;;16.00;15.00;;;10.60;79.30;;;;;;5099329;28;20433;-50
2022/12/08 10:35:00;;;;;;;15.47;14.47;;;10.20;79.00;;;;;;5099741;28;20179;-48
2022/12/08 10:37:26;;;;;;;15.80;14.80;;;10.20;82.00;;;;;;5100681;28;20433;-49
2022/12/08 10:40:00;;;;;;;15.23;14.33;;;9.70;82.90;;;;;;5100611;28;21003;-47
2022/12/08 10:42:34;;;;;;;15.13;14.23;;;10.10;82.80;;;;;;5100374;27;20191;-45
2022/12/08 10:45:02;;;;;;;15.97;14.97;;;9.60;84.50;;;;;;5100498;28;20491;-51
2022/12/08 10:47:29;;;;;;;15.33;14.40;;;9.00;88.10;;;;;;5098827;28;20959;-47
2022/12/08 10:50:17;;;;;;;15.53;14.43;;;8.50;91.00;;;;;;5100150;28;20481;-48
2022/12/08 10:52:44;;;;;;;16.20;15.13;;;7.70;94.30;;;;;;5100258;28;20472;-49
2022/12/08 10:55:15;;;;;;;14.80;13.80;;;7.30;97.60;;;;;;5100900;27;20442;-49
2022/12/08 10:57:40;;;;;;;13.97;13.00;;;7.10;99.90;;;;;;5099745;28;21213;-48
2022/12/08 11:00:10;;;;;;;15.03;14.03;;;7.00;99.90;;;;;;5096408;28;20432;-49
2022/12/08 11:02:48;;;;;;;14.50;13.40;;;7.00;99.90;;;;;;5097142;28;20190;-50
2022/12/08 11:05:15;;;;;;;15.17;14.07;;;7.20;99.90;;;;;;5100272;28;21218;-50
2022/12/08 11:07:52;;;;;;;15.67;14.60;;;7.70;98.40;;;;;;5099336;28;20976;-49
2022/12/08 11:10:20;;;;;;;15.57;14.47;;;8.20;96.90;;;;;;5099235;28;20808;-49
2022/12/08 11:12:47;;;;;;;15.43;14.40;;;8.90;95.40;;;;;;5099191;28;20472;-53
2022/12/08 11:15:15;;;;;;;14.83;13.83;;;9.40;92.50;;;;;;5099096;28;20920;-50
2022/12/08 11:17:42;;;;;;;14.63;13.73;;;9.60;87.20;;;;;;5096848;28;20620;-49
2022/12/08 11:20:08;;;;;;;13.90;13.00;;;9.40;88.60;;;;;;5096754;28;20412;-49
2022/12/08 11:22:39;;;;;;;15.40;14.40;;;9.30;86.90;;;;;;5098311;28;20421;-47
2022/12/08 11:25:09;;;;;;;13.80;13.00;;;9.10;87.50;;;;;;5098639;28;20190;-53
2022/12/08 11:27:38;;;;;;;15.23;14.23;;;9.00;89.80;;;;;;5099561;28;20422;-51
2022/12/08 11:30:19;;;;;;;12.60;11.80;;;9.20;89.70;;;;;;5097629;28;20444;-50
2022/12/08 11:32:47;;;;;;;13.83;12.93;;;9.30;85.70;;;;;;5097798;28;20657;-48
2022/12/08 11:35:30;;;;;;;13.40;12.60;;;8.90;86.40;;;;;;5099125;28;20453;-46
2022/12/08 11:38:03;;;;;;;13.60;12.80;;;8.50;89.10;;;;;;5098726;28;20528;-50
2022/12/08 11:40:36;;;;;;;14.90;14.00;;;8.10;91.30;;;;;;5098451;28;20503;-47
2022/12/08 11:43:35;;;;;;;14.33;13.43;;;7.60;93.10;;;;;;5099141;28;20458;-49
2022/12/08 11:46:07;;;;;;;14.20;13.30;;;7.20;94.70;;;;;;5098996;28;20471;-51
2022/12/08 11:48:40;;;;;;;13.80;12.90;;;7.20;97.20;;;;;;5099281;28;20416;-46
2022/12/08 11:51:22;;;;;;;13.83;13.03;;;6.80;95.90;;;;;;5098969;28;20416;-50
2022/12/08 11:54:23;;;;;;;14.43;13.63;;;6.50;97.50;;;;;;5099239;28;21054;-48
2022/12/08 11:57:03;;;;;;;14.30;13.40;;;6.40;99.90;;;;;;5099015;28;20408;-52
2022/12/08 11:59:40;;;;;;;14.13;13.23;;;6.40;99.90;;;;;;5098546;28;20178;-49
2022/12/08 12:02:13;;;;;;;15.33;14.33;;;6.50;99.90;;;;;;5095938;28;20432;-47
2022/12/08 12:05:06;;;;;;;15.30;14.23;;;6.60;99.60;;;;;;5098414;28;20892;-50
2022/12/08 12:07:57;;;;;;;14.90;13.90;;;6.70;99.30;;;;;;5098134;28;20451;-49
2022/12/08 12:10:47;;;;;;;15.20;14.30;;;6.70;99.90;;;;;;5099048;28;20414;-48
2022/12/08 12:13:33;;;;;;;15.63;14.53;;;6.90;99.90;;;;;;5098300;28;20972;-54
2022/12/08 12:16:04;;;;;;;14.70;13.80;;;6.90;99.90;;;;;;5098782;28;20425;-52
2022/12/08 12:19:02;;;;;;;13.60;12.70;;;7.10;99.20;;;;;;5099389;28;20405;-51
2022/12/08 12:21:43;;;;;;;13.90;13.10;;;7.10;97.20;;;;;;5099458;28;20464;-48
2022/12/08 12:24:30;;;;;;;14.97;13.87;;;7.10;97.20;;;;;;5099757;28;20412;-56
2022/12/08 12:27:02;;;;;;;13.70;12.90;;;7.10;96.80;;;;;;5100051;28;20753;-56
2022/12/08 12:29:32;;;;;;;14.80;13.80;;;7.10;97.00;;;;;;5099166;28;20430;-53
2022/12/08 12:32:02;;;;;;;13.93;13.13;;;7.40;97.20;;;;;;5100077;28;20436;-54
2022/12/08 12:34:32;;;;;;;14.10;13.30;;;7.90;95.50;;;;;;5102662;28;20775;-57
2022/12/08 12:37:24;;;;;;;13.70;12.90;;;8.30;93.20;;;;;;5103144;28;20424;-54
2022/12/08 12:40:02;;;;;;;14.00;13.10;;;9.00;91.20;;;;;;5101026;28;20429;-55
2022/12/08 12:42:49;;;;;;;12.50;11.87;;;9.00;84.80;;;;;;5102511;28;20416;-54
2022/12/08 12:45:15;;;;;;;12.53;11.83;;;8.50;86.30;;;;;;5102111;28;20437;-57
2022/12/08 12:47:54;;;;;;;12.67;11.97;;;8.80;87.20;;;;;;5103036;28;20398;-56
2022/12/08 12:50:42;;;;;;;12.70;12.00;;;8.30;85.80;;;;;;5103204;28;20214;-55
2022/12/08 12:53:17;;;;;;;13.10;12.30;;;7.90;89.60;;;;;;5103240;28;20448;-55
2022/12/08 12:55:52;;;;;;;13.40;12.50;;;7.50;91.30;;;;;;5102804;28;20425;-53